Time;durP1;ratioP1;P1;durP2;ratioP2;P2;SDS_P1;SDS_P2;PMS_P1;PMS_P2;Temp;Humidity;BMP_temperature;BMP_pressure;BME280_temperature;BME280_humidity;BME280_pressure;Samples;Min_cycle;Max_cycle;Signal;HPM_P1;HPM_P2
2021/09/11 00:00:17;;;;;;;8.80;7.90;;;18.50;99.90;;;;;;5030599;28;20398;-73
2021/09/11 00:02:43;;;;;;;10.75;7.90;;;18.50;99.90;;;;;;5031481;28;20395;-76
2021/09/11 00:05:09;;;;;;;10.45;7.20;;;18.50;99.90;;;;;;5031638;28;20383;-75
2021/09/11 00:07:35;;;;;;;8.50;6.97;;;18.40;99.90;;;;;;5031161;28;20448;-75
2021/09/11 00:10:00;;;;;;;10.68;7.20;;;18.40;99.90;;;;;;5031015;28;20387;-75
2021/09/11 00:12:26;;;;;;;8.45;7.47;;;18.40;99.90;;;;;;5029994;28;20390;-75
2021/09/11 00:14:52;;;;;;;12.00;7.90;;;18.30;99.90;;;;;;5031274;28;20860;-76
2021/09/11 00:17:17;;;;;;;12.13;7.37;;;18.30;99.90;;;;;;5029973;28;20399;-76
2021/09/11 00:19:43;;;;;;;8.60;7.72;;;18.20;99.90;;;;;;5026138;28;20424;-75
2021/09/11 00:22:08;;;;;;;12.00;8.03;;;18.10;99.90;;;;;;5011556;28;20451;-75
2021/09/11 00:24:34;;;;;;;13.63;8.20;;;18.10;99.90;;;;;;5011457;28;20447;-75
2021/09/11 00:26:59;;;;;;;13.77;8.82;;;18.00;99.90;;;;;;5011503;28;20878;-75
2021/09/11 00:29:25;;;;;;;18.98;8.50;;;18.00;99.90;;;;;;5016766;28;20399;-76
2021/09/11 00:31:51;;;;;;;10.53;7.83;;;18.00;99.90;;;;;;5031683;28;20879;-75
2021/09/11 00:34:23;;;;;;;11.80;7.70;;;18.10;99.90;;;;;;5031406;28;20395;-75
2021/09/11 00:36:48;;;;;;;11.90;8.25;;;18.10;99.90;;;;;;5031010;28;20478;-75
2021/09/11 00:39:15;;;;;;;11.40;7.90;;;18.10;99.90;;;;;;5032883;28;20489;-75
2021/09/11 00:41:40;;;;;;;15.30;7.55;;;18.30;99.90;;;;;;5029938;28;20403;-76
2021/09/11 00:44:06;;;;;;;9.00;7.60;;;18.20;99.90;;;;;;5031310;28;20519;-75
2021/09/11 00:46:31;;;;;;;11.17;8.27;;;18.20;99.90;;;;;;5030712;28;20386;-77
2021/09/11 00:48:57;;;;;;;13.23;8.23;;;18.20;99.90;;;;;;5030736;28;20391;-75
2021/09/11 00:51:23;;;;;;;12.75;8.50;;;18.20;99.90;;;;;;5029509;28;20434;-75
2021/09/11 00:53:49;;;;;;;10.93;7.40;;;18.20;99.90;;;;;;5031091;28;20753;-76
2021/09/11 00:56:14;;;;;;;12.70;8.57;;;18.20;99.90;;;;;;5029618;28;20383;-75
2021/09/11 00:58:40;;;;;;;12.33;8.10;;;18.30;99.90;;;;;;5029470;28;20421;-74
2021/09/11 01:01:07;;;;;;;8.45;7.65;;;18.40;99.90;;;;;;5030897;28;20423;-75
2021/09/11 01:03:32;;;;;;;11.20;8.20;;;18.40;99.90;;;;;;5031539;28;20860;-76
2021/09/11 01:05:59;;;;;;;9.00;7.30;;;18.50;99.90;;;;;;5023138;28;20403;-76
2021/09/11 01:08:26;;;;;;;11.50;8.07;;;18.60;99.90;;;;;;5010562;28;20408;-76
2021/09/11 01:10:52;;;;;;;11.48;7.80;;;18.70;99.90;;;;;;5023649;28;20379;-76
2021/09/11 01:13:19;;;;;;;11.40;7.60;;;18.80;99.90;;;;;;5030576;28;20390;-76
2021/09/11 01:15:44;;;;;;;11.52;7.40;;;18.90;98.40;;;;;;5030612;28;20959;-75
2021/09/11 01:18:11;;;;;;;11.40;7.40;;;19.10;94.30;;;;;;5031143;28;20391;-76
2021/09/11 01:20:38;;;;;;;9.77;6.80;;;19.20;91.80;;;;;;5030835;28;20489;-76
2021/09/11 01:23:04;;;;;;;10.80;7.70;;;19.20;89.90;;;;;;5030234;28;20409;-76
2021/09/11 01:25:30;;;;;;;13.47;7.90;;;19.30;85.50;;;;;;5031039;28;20417;-75
2021/09/11 01:27:56;;;;;;;11.80;8.30;;;19.30;85.70;;;;;;5031380;28;20410;-75
2021/09/11 01:30:22;;;;;;;12.20;7.80;;;19.30;83.40;;;;;;5031824;28;20391;-76
2021/09/11 01:32:49;;;;;;;9.63;7.80;;;19.40;83.10;;;;;;5035311;28;20415;-75
2021/09/11 01:35:15;;;;;;;22.60;14.70;;;19.40;81.80;;;;;;5035709;28;20387;-76
2021/09/11 01:37:42;;;;;;;24.08;14.85;;;19.50;78.20;;;;;;5031853;28;20479;-76
2021/09/11 01:40:09;;;;;;;19.00;14.25;;;19.50;79.10;;;;;;5031852;28;20415;-74
2021/09/11 01:42:35;;;;;;;21.05;16.08;;;19.50;79.10;;;;;;5030946;28;20446;-74
2021/09/11 01:45:02;;;;;;;28.48;18.20;;;19.50;78.60;;;;;;5030809;28;20856;-75
2021/09/11 01:47:27;;;;;;;22.95;16.88;;;19.50;78.70;;;;;;5030580;28;20465;-74
2021/09/11 01:49:53;;;;;;;22.73;17.83;;;19.50;79.80;;;;;;5030820;28;20800;-75
2021/09/11 01:52:23;;;;;;;27.63;17.42;;;19.50;80.20;;;;;;5030967;28;20391;-76
2021/09/11 01:54:48;;;;;;;26.80;19.58;;;19.60;78.20;;;;;;5036657;28;20379;-74
2021/09/11 01:57:14;;;;;;;28.50;18.92;;;19.50;76.80;;;;;;5048887;28;20383;-74
2021/09/11 01:59:41;;;;;;;30.02;18.67;;;19.50;78.40;;;;;;5047839;28;20443;-75
2021/09/11 02:02:07;;;;;;;24.98;17.50;;;19.40;79.10;;;;;;5032286;28;20387;-75
2021/09/11 02:04:34;;;;;;;30.55;18.52;;;19.30;82.30;;;;;;5030577;28;20395;-75
2021/09/11 02:07:01;;;;;;;25.15;19.33;;;19.10;84.10;;;;;;5015665;28;20409;-75
2021/09/11 02:09:28;;;;;;;29.33;21.00;;;18.90;87.60;;;;;;5027045;28;20396;-75
2021/09/11 02:11:53;;;;;;;31.50;21.33;;;18.90;87.40;;;;;;5049277;28;20441;-76
2021/09/11 02:14:19;;;;;;;29.40;21.60;;;18.80;89.80;;;;;;5053640;28;20383;-75
2021/09/11 02:16:44;;;;;;;27.90;21.60;;;18.70;91.90;;;;;;5048728;28;20383;-75
2021/09/11 02:19:10;;;;;;;31.63;22.90;;;18.60;96.20;;;;;;5039332;28;20406;-76
2021/09/11 02:21:36;;;;;;;35.15;23.38;;;18.70;94.10;;;;;;5034017;28;20391;-76
2021/09/11 02:24:02;;;;;;;33.88;22.95;;;18.50;95.30;;;;;;5034838;28;20383;-75
2021/09/11 02:26:27;;;;;;;31.55;21.38;;;18.50;99.00;;;;;;5033920;28;20418;-75
2021/09/11 02:28:53;;;;;;;36.97;23.00;;;18.40;98.10;;;;;;5033406;28;20485;-75
2021/09/11 02:31:19;;;;;;;32.53;22.30;;;18.50;98.00;;;;;;5033300;28;20887;-76
2021/09/11 02:33:47;;;;;;;34.20;22.65;;;18.50;99.20;;;;;;5033257;28;20805;-75
2021/09/11 02:36:13;;;;;;;33.78;23.05;;;18.40;99.90;;;;;;5033244;28;20390;-74
2021/09/11 02:38:38;;;;;;;40.83;24.07;;;18.40;99.90;;;;;;5031746;28;20807;-77
2021/09/11 02:41:04;;;;;;;31.53;22.60;;;18.50;99.90;;;;;;5033447;28;20391;-76
2021/09/11 02:43:30;;;;;;;34.23;23.53;;;18.50;99.90;;;;;;5033234;28;20550;-76
2021/09/11 02:45:56;;;;;;;35.25;23.73;;;18.50;99.90;;;;;;5033236;28;20389;-77
2021/09/11 02:48:22;;;;;;;34.97;23.65;;;18.60;98.80;;;;;;5032468;28;20458;-77
2021/09/11 02:50:47;;;;;;;36.17;23.42;;;18.60;98.30;;;;;;5033783;28;20402;-76
2021/09/11 02:53:13;;;;;;;34.13;23.98;;;18.60;98.20;;;;;;5033128;28;20399;-75
2021/09/11 02:55:39;;;;;;;36.30;23.50;;;18.60;99.80;;;;;;5031512;28;20399;-74
2021/09/11 02:58:04;;;;;;;39.77;26.13;;;18.60;99.10;;;;;;5032520;28;20748;-74
2021/09/11 03:00:30;;;;;;;35.03;25.73;;;18.50;99.90;;;;;;5032534;28;20382;-75
2021/09/11 03:02:56;;;;;;;36.25;25.10;;;18.50;99.80;;;;;;5032826;28;20390;-75
2021/09/11 03:05:21;;;;;;;38.30;25.10;;;18.50;99.90;;;;;;5028663;28;20935;-74
2021/09/11 03:07:47;;;;;;;43.90;27.30;;;18.50;99.90;;;;;;5012485;28;20739;-76
2021/09/11 03:10:13;;;;;;;39.37;25.80;;;18.60;99.90;;;;;;5019062;28;20387;-76
2021/09/11 03:12:38;;;;;;;37.67;27.02;;;18.60;99.10;;;;;;5032529;28;20470;-76
2021/09/11 03:15:05;;;;;;;43.95;26.95;;;18.60;98.00;;;;;;5032565;28;20887;-76
2021/09/11 03:17:31;;;;;;;37.10;25.85;;;18.70;96.60;;;;;;5031892;28;20430;-76
2021/09/11 03:19:56;;;;;;;43.38;26.45;;;18.70;97.50;;;;;;5032253;28;20472;-76
2021/09/11 03:22:22;;;;;;;41.97;26.40;;;18.70;97.80;;;;;;5031474;28;20391;-76
2021/09/11 03:24:48;;;;;;;38.53;27.20;;;18.60;98.20;;;;;;5031858;28;20391;-75
2021/09/11 03:27:13;;;;;;;40.77;27.00;;;18.70;96.70;;;;;;5031483;28;20410;-75
2021/09/11 03:29:39;;;;;;;40.88;26.55;;;18.80;96.40;;;;;;5032492;28;20726;-75
2021/09/11 03:32:05;;;;;;;38.28;25.35;;;18.80;94.40;;;;;;5018284;28;20385;-76
2021/09/11 03:34:31;;;;;;;41.28;26.20;;;18.70;96.60;;;;;;5012235;28;20467;-76
2021/09/11 03:36:57;;;;;;;41.30;25.38;;;18.80;94.70;;;;;;5012197;28;20489;-76
2021/09/11 03:39:22;;;;;;;44.85;25.85;;;18.70;93.20;;;;;;5012059;28;20381;-76
2021/09/11 03:41:48;;;;;;;39.95;25.85;;;18.60;92.10;;;;;;5012081;28;20393;-76
2021/09/11 03:44:14;;;;;;;36.78;24.52;;;18.50;93.80;;;;;;5011199;28;20393;-75
2021/09/11 03:46:39;;;;;;;38.42;24.55;;;18.50;93.10;;;;;;5012076;28;20874;-75
2021/09/11 03:49:05;;;;;;;35.33;23.37;;;18.50;91.20;;;;;;5011934;28;20410;-76
2021/09/11 03:51:31;;;;;;;39.93;24.37;;;18.40;91.30;;;;;;5012996;28;20389;-76
2021/09/11 03:53:57;;;;;;;36.83;24.00;;;18.40;92.40;;;;;;5013287;28;20396;-76
2021/09/11 03:56:23;;;;;;;37.50;23.83;;;18.30;91.90;;;;;;5012909;28;20929;-75
2021/09/11 03:58:48;;;;;;;34.30;22.30;;;18.20;93.30;;;;;;5010967;28;20731;-75
2021/09/11 04:01:14;;;;;;;35.43;21.40;;;18.40;89.70;;;;;;5011491;28;20399;-75
2021/09/11 04:03:40;;;;;;;30.70;19.20;;;18.40;88.70;;;;;;5013111;28;20394;-74
2021/09/11 04:06:05;;;;;;;28.90;19.80;;;18.40;86.80;;;;;;5021495;28;20466;-76
2021/09/11 04:08:31;;;;;;;29.42;18.63;;;18.50;83.00;;;;;;5029969;28;20407;-75
2021/09/11 04:10:58;;;;;;;29.85;18.77;;;18.50;82.10;;;;;;5033609;28;20383;-76
2021/09/11 04:13:24;;;;;;;30.02;19.58;;;18.50;81.70;;;;;;5037306;28;20383;-77
2021/09/11 04:15:50;;;;;;;33.30;20.65;;;18.60;80.80;;;;;;5038573;28;20379;-76
2021/09/11 04:18:15;;;;;;;27.08;16.27;;;18.60;80.10;;;;;;5034695;28;20445;-75
2021/09/11 04:20:41;;;;;;;29.75;16.60;;;18.70;73.30;;;;;;5031279;28;20391;-75
2021/09/11 04:23:06;;;;;;;24.63;16.23;;;18.60;74.80;;;;;;5031224;28;20387;-75
2021/09/11 04:25:32;;;;;;;23.23;14.87;;;18.50;73.70;;;;;;5029859;28;20394;-75
2021/09/11 04:27:57;;;;;;;27.38;15.93;;;18.60;71.70;;;;;;5030848;28;20407;-76
2021/09/11 04:30:23;;;;;;;23.73;14.57;;;18.50;74.20;;;;;;5031186;28;20482;-77
2021/09/11 04:32:49;;;;;;;19.03;14.47;;;18.40;74.50;;;;;;5019807;28;20385;-75
2021/09/11 04:35:14;;;;;;;21.40;14.27;;;18.40;75.70;;;;;;5010694;28;20475;-76
2021/09/11 04:37:40;;;;;;;21.75;14.07;;;18.30;75.90;;;;;;5010792;28;20537;-75
2021/09/11 04:40:06;;;;;;;18.88;13.35;;;18.30;75.90;;;;;;5011284;28;20447;-76
2021/09/11 04:42:32;;;;;;;21.77;13.32;;;18.30;73.50;;;;;;5011085;28;20481;-75
2021/09/11 04:44:57;;;;;;;20.45;12.57;;;18.30;73.30;;;;;;5011342;28;20543;-74
2021/09/11 04:47:23;;;;;;;23.90;13.10;;;18.40;71.90;;;;;;5010832;28;20421;-75
2021/09/11 04:49:48;;;;;;;20.23;12.20;;;18.40;72.70;;;;;;5010991;28;20484;-75
2021/09/11 04:52:14;;;;;;;22.97;13.87;;;18.30;74.60;;;;;;5011320;28;20750;-75
2021/09/11 04:54:40;;;;;;;18.35;12.90;;;18.40;72.90;;;;;;5010934;28;20388;-74
2021/09/11 04:57:05;;;;;;;22.80;13.50;;;18.40;71.60;;;;;;5011012;28;20401;-75
2021/09/11 04:59:31;;;;;;;19.15;11.90;;;18.40;70.40;;;;;;5010555;28;20392;-76
2021/09/11 05:01:57;;;;;;;19.27;11.80;;;18.40;71.20;;;;;;5011043;28;20423;-76
2021/09/11 05:04:23;;;;;;;20.33;12.30;;;18.40;70.10;;;;;;5010766;28;20835;-74
2021/09/11 05:06:48;;;;;;;17.90;11.68;;;18.40;70.50;;;;;;5025500;28;20482;-76
2021/09/11 05:09:14;;;;;;;18.33;11.50;;;18.50;68.50;;;;;;5030318;28;20383;-76
2021/09/11 05:11:40;;;;;;;16.87;10.00;;;18.50;67.40;;;;;;5030874;28;20390;-74
2021/09/11 05:14:05;;;;;;;21.20;10.02;;;18.40;65.40;;;;;;5030433;28;20470;-75
2021/09/11 05:16:31;;;;;;;14.98;9.13;;;18.40;64.70;;;;;;5030497;28;20832;-74
2021/09/11 05:18:56;;;;;;;13.00;9.10;;;18.50;63.30;;;;;;5030816;28;20395;-76
2021/09/11 05:21:22;;;;;;;13.23;8.40;;;18.40;63.30;;;;;;5029540;28;20399;-74
2021/09/11 05:23:48;;;;;;;16.33;8.15;;;18.40;61.60;;;;;;5030325;28;20915;-74
2021/09/11 05:26:13;;;;;;;12.57;7.80;;;18.50;61.30;;;;;;5030678;28;20449;-75
2021/09/11 05:28:39;;;;;;;13.17;7.73;;;18.40;60.30;;;;;;5029922;28;20405;-75
2021/09/11 05:31:04;;;;;;;11.60;8.20;;;18.40;60.90;;;;;;5030728;28;20398;-74
2021/09/11 05:33:30;;;;;;;13.90;7.90;;;18.40;60.20;;;;;;5030699;28;20437;-76
2021/09/11 05:35:55;;;;;;;15.07;8.05;;;18.40;60.50;;;;;;5029266;28;20387;-76
2021/09/11 05:38:21;;;;;;;11.20;7.30;;;18.40;59.30;;;;;;5030059;28;20383;-77
2021/09/11 05:40:46;;;;;;;10.20;7.57;;;18.40;59.10;;;;;;5029199;28;20449;-76
2021/09/11 05:43:12;;;;;;;11.73;7.40;;;18.40;58.40;;;;;;5030593;28;20444;-75
2021/09/11 05:45:38;;;;;;;11.43;7.53;;;18.40;59.00;;;;;;5028588;28;20391;-75
2021/09/11 05:48:04;;;;;;;13.50;7.70;;;18.40;58.60;;;;;;5032633;28;20845;-75
2021/09/11 05:50:29;;;;;;;10.23;7.25;;;18.40;59.20;;;;;;5033836;28;20411;-76
2021/09/11 05:52:55;;;;;;;11.40;7.83;;;18.30;60.10;;;;;;5032623;28;20406;-74
2021/09/11 05:55:21;;;;;;;14.10;7.47;;;18.40;59.50;;;;;;5033595;28;20395;-75
2021/09/11 05:57:46;;;;;;;9.60;6.77;;;18.40;58.50;;;;;;5032338;28;20394;-76
2021/09/11 06:00:12;;;;;;;13.50;7.50;;;18.50;58.80;;;;;;5033620;28;20391;-75
2021/09/11 06:02:38;;;;;;;14.43;7.60;;;18.60;57.20;;;;;;5033681;28;20405;-76
2021/09/11 06:05:04;;;;;;;16.00;7.43;;;18.60;56.50;;;;;;5033514;28;20394;-76
2021/09/11 06:07:29;;;;;;;12.55;7.32;;;18.60;57.30;;;;;;5013676;28;20416;-74
2021/09/11 06:09:55;;;;;;;12.57;7.03;;;18.70;56.80;;;;;;5018625;28;20387;-76
2021/09/11 06:12:20;;;;;;;13.27;6.23;;;18.80;55.70;;;;;;5033677;28;20795;-75
2021/09/11 06:14:46;;;;;;;12.38;7.40;;;18.90;54.20;;;;;;5034102;28;20401;-75
2021/09/11 06:17:12;;;;;;;10.00;7.10;;;18.90;54.10;;;;;;5033925;28;20789;-75
2021/09/11 06:19:37;;;;;;;11.40;7.20;;;18.90;53.60;;;;;;5031046;28;20411;-74
2021/09/11 06:22:04;;;;;;;13.90;7.70;;;18.90;54.00;;;;;;5030510;28;20867;-74
2021/09/11 06:24:30;;;;;;;10.07;6.95;;;19.00;53.40;;;;;;5033174;28;20945;-75
2021/09/11 06:26:56;;;;;;;11.43;7.85;;;19.10;52.90;;;;;;5031477;28;20403;-74
2021/09/11 06:29:21;;;;;;;11.30;7.20;;;19.10;53.50;;;;;;5033231;28;20449;-75
2021/09/11 06:31:47;;;;;;;12.73;7.75;;;19.00;54.40;;;;;;5025358;28;20427;-75
2021/09/11 06:34:13;;;;;;;11.82;6.53;;;19.30;52.70;;;;;;5020834;28;20436;-74
2021/09/11 06:36:38;;;;;;;11.07;7.43;;;19.20;51.50;;;;;;5032632;28;20399;-74
2021/09/11 06:39:04;;;;;;;9.17;6.50;;;19.00;52.60;;;;;;5032474;28;20387;-74
2021/09/11 06:41:30;;;;;;;10.17;6.73;;;18.80;54.40;;;;;;5033741;28;20813;-76
2021/09/11 06:43:55;;;;;;;12.48;5.97;;;18.80;54.30;;;;;;5032399;28;20915;-73
2021/09/11 06:46:21;;;;;;;11.82;5.70;;;18.80;52.70;;;;;;5033344;28;20436;-74
2021/09/11 06:48:46;;;;;;;8.00;5.60;;;19.00;52.20;;;;;;5032959;28;20415;-73
2021/09/11 06:51:13;;;;;;;10.03;5.60;;;19.20;50.30;;;;;;5015220;28;20401;-74
2021/09/11 06:53:38;;;;;;;9.02;5.10;;;19.40;47.70;;;;;;5020747;28;20415;-76
2021/09/11 06:56:05;;;;;;;9.80;5.20;;;19.50;46.60;;;;;;5036512;28;20399;-74
2021/09/11 06:58:30;;;;;;;8.25;5.05;;;19.60;47.40;;;;;;5035660;28;20391;-73
2021/09/11 07:00:56;;;;;;;9.50;5.30;;;19.60;45.80;;;;;;5031735;28;20403;-76
2021/09/11 07:03:21;;;;;;;9.97;5.50;;;19.70;45.60;;;;;;5032711;28;20398;-75
2021/09/11 07:05:47;;;;;;;8.13;5.65;;;19.70;44.90;;;;;;5032876;28;20447;-75
2021/09/11 07:08:13;;;;;;;9.18;5.70;;;19.70;45.60;;;;;;5031547;28;20409;-74
2021/09/11 07:10:38;;;;;;;13.40;5.80;;;19.60;45.60;;;;;;5032027;28;20517;-73
2021/09/11 07:13:04;;;;;;;6.53;4.97;;;19.70;46.20;;;;;;5039931;28;20390;-76
2021/09/11 07:15:30;;;;;;;8.95;5.82;;;19.70;45.30;;;;;;5039930;28;20757;-74
2021/09/11 07:17:55;;;;;;;10.10;5.45;;;19.70;46.00;;;;;;5039587;28;20405;-74
2021/09/11 07:20:22;;;;;;;9.40;5.72;;;19.90;44.30;;;;;;5031405;28;20399;-74
2021/09/11 07:22:48;;;;;;;9.00;4.72;;;20.10;43.60;;;;;;5036108;28;20855;-76
2021/09/11 07:25:14;;;;;;;6.13;4.80;;;20.10;42.90;;;;;;5019096;28;20480;-77
2021/09/11 07:27:39;;;;;;;11.65;4.50;;;20.20;41.30;;;;;;5016245;28;20484;-77
2021/09/11 07:30:05;;;;;;;8.52;4.55;;;20.30;41.40;;;;;;5030993;28;20395;-75
2021/09/11 07:32:31;;;;;;;4.22;3.83;;;20.50;40.40;;;;;;5030413;28;20888;-75
2021/09/11 07:34:57;;;;;;;8.52;4.30;;;20.60;39.00;;;;;;5030102;28;20483;-73
2021/09/11 07:37:23;;;;;;;7.68;3.70;;;20.60;38.00;;;;;;5030009;28;20391;-76
2021/09/11 07:39:48;;;;;;;4.95;4.15;;;20.70;37.80;;;;;;5021851;28;20391;-75
2021/09/11 07:42:15;;;;;;;7.65;4.05;;;20.70;37.60;;;;;;5024243;28;20504;-74
2021/09/11 07:44:41;;;;;;;7.10;3.87;;;20.80;36.80;;;;;;5016994;28;20494;-74
2021/09/11 07:47:07;;;;;;;6.00;3.60;;;20.70;37.70;;;;;;5031599;28;20435;-74
2021/09/11 07:49:33;;;;;;;5.97;3.20;;;20.80;37.60;;;;;;5031749;28;20450;-75
2021/09/11 07:51:58;;;;;;;5.90;3.50;;;21.00;36.30;;;;;;5030318;28;20391;-74
2021/09/11 07:54:24;;;;;;;5.53;3.60;;;21.10;35.40;;;;;;5031622;28;20383;-74
2021/09/11 07:56:49;;;;;;;5.43;3.50;;;21.20;34.30;;;;;;5015499;28;20396;-74
2021/09/11 07:59:15;;;;;;;6.43;3.60;;;21.20;34.80;;;;;;5028878;28;20398;-75
2021/09/11 08:01:40;;;;;;;5.10;3.50;;;21.30;34.20;;;;;;5029380;28;20411;-74
2021/09/11 08:04:06;;;;;;;7.43;3.10;;;21.20;35.00;;;;;;5031997;28;20470;-74
2021/09/11 08:06:32;;;;;;;3.50;3.10;;;21.30;33.80;;;;;;5031158;28;20450;-74
2021/09/11 08:08:57;;;;;;;8.27;3.25;;;21.30;34.10;;;;;;5031149;28;20389;-75
2021/09/11 08:11:23;;;;;;;5.00;3.40;;;21.30;34.10;;;;;;5031360;28;20470;-74
2021/09/11 08:13:49;;;;;;;7.80;3.20;;;21.30;33.90;;;;;;5035854;28;20408;-74
2021/09/11 08:16:15;;;;;;;6.68;3.25;;;21.50;33.40;;;;;;5045190;28;20386;-74
2021/09/11 08:18:40;;;;;;;4.43;2.95;;;21.60;32.70;;;;;;5049554;28;20474;-75
2021/09/11 08:21:06;;;;;;;5.80;2.90;;;21.50;33.00;;;;;;5037999;28;20403;-74
2021/09/11 08:23:32;;;;;;;4.93;2.92;;;21.50;32.80;;;;;;5039480;28;20882;-74
2021/09/11 08:25:58;;;;;;;7.97;3.00;;;21.60;32.00;;;;;;5048110;28;20443;-74
2021/09/11 08:28:24;;;;;;;5.72;3.08;;;21.70;32.70;;;;;;5049844;28;20493;-75
2021/09/11 08:30:49;;;;;;;7.40;3.10;;;21.50;32.60;;;;;;5049911;28;20477;-73
2021/09/11 08:33:16;;;;;;;7.27;3.20;;;21.30;33.40;;;;;;5047737;28;20389;-74
2021/09/11 08:35:42;;;;;;;5.43;3.13;;;21.10;33.90;;;;;;5050147;28;20493;-74
2021/09/11 08:38:10;;;;;;;8.77;2.70;;;21.20;33.70;;;;;;5038312;28;21283;-73
2021/09/11 08:40:36;;;;;;;4.50;2.80;;;21.50;33.20;;;;;;5053440;28;20453;-77
2021/09/11 08:43:02;;;;;;;5.30;3.10;;;21.40;32.80;;;;;;5041997;28;20401;-76
2021/09/11 08:45:28;;;;;;;3.85;2.90;;;21.20;32.90;;;;;;5034914;28;20399;-76
2021/09/11 08:47:54;;;;;;;4.72;2.70;;;20.80;34.10;;;;;;5044253;28;20494;-75
2021/09/11 08:50:20;;;;;;;6.57;3.20;;;20.50;35.30;;;;;;5051285;28;20405;-75
2021/09/11 08:52:48;;;;;;;7.40;3.20;;;20.40;35.50;;;;;;5049441;28;20853;-74
2021/09/11 08:55:15;;;;;;;4.80;3.10;;;20.40;36.10;;;;;;5052735;28;20386;-76
2021/09/11 08:57:56;;;;;;;5.00;3.50;;;20.50;35.80;;;;;;5053710;28;20413;-75
2021/09/11 09:00:39;;;;;;;7.40;3.20;;;20.70;36.10;;;;;;5056190;28;20389;-74
2021/09/11 09:03:26;;;;;;;5.72;3.08;;;20.80;35.90;;;;;;5054472;28;20405;-74
2021/09/11 09:05:52;;;;;;;3.80;2.90;;;20.90;35.10;;;;;;5041701;28;20405;-76
2021/09/11 09:08:28;;;;;;;6.40;2.95;;;21.00;33.70;;;;;;5032689;28;20409;-77
2021/09/11 09:10:55;;;;;;;6.68;2.60;;;21.00;33.20;;;;;;5051472;28;20778;-75
2021/09/11 09:13:21;;;;;;;3.00;2.30;;;21.00;33.50;;;;;;5046105;28;20490;-74
2021/09/11 09:15:47;;;;;;;4.75;2.97;;;21.10;33.10;;;;;;5049719;28;20704;-75
2021/09/11 09:18:15;;;;;;;6.90;3.40;;;21.30;33.10;;;;;;5050145;28;20447;-74
2021/09/11 09:20:42;;;;;;;5.90;2.80;;;21.20;32.40;;;;;;5046491;28;20829;-76
2021/09/11 09:23:17;;;;;;;4.53;2.80;;;21.40;31.80;;;;;;5048777;28;20393;-76
2021/09/11 09:25:43;;;;;;;5.32;2.90;;;21.50;31.60;;;;;;5053970;28;20485;-76
2021/09/11 09:28:14;;;;;;;5.97;2.75;;;21.40;31.60;;;;;;5054540;28;20793;-75
2021/09/11 09:30:43;;;;;;;7.22;2.60;;;21.70;31.80;;;;;;5054214;28;20370;-76
2021/09/11 09:33:27;;;;;;;3.70;2.67;;;21.90;30.30;;;;;;5051587;28;20411;-76
2021/09/11 09:35:53;;;;;;;2.90;2.40;;;22.10;29.50;;;;;;5054349;28;20382;-77
2021/09/11 09:38:19;;;;;;;4.97;2.80;;;22.00;29.60;;;;;;5053087;28;20440;-75
2021/09/11 09:40:47;;;;;;;3.42;2.40;;;22.00;29.10;;;;;;5038890;28;20410;-75
2021/09/11 09:43:34;;;;;;;3.13;2.20;;;22.00;29.30;;;;;;5041783;28;20411;-75
2021/09/11 09:46:08;;;;;;;3.92;2.78;;;22.10;29.90;;;;;;5054960;28;20385;-75
2021/09/11 09:48:35;;;;;;;3.50;2.95;;;22.10;29.00;;;;;;5051440;28;20415;-77
2021/09/11 09:51:10;;;;;;;6.30;2.92;;;22.10;29.70;;;;;;5053295;28;20758;-76
2021/09/11 09:53:37;;;;;;;4.72;2.90;;;22.20;29.90;;;;;;5044198;28;20394;-76
2021/09/11 09:56:03;;;;;;;6.35;3.00;;;22.50;29.00;;;;;;5046652;28;20393;-75
2021/09/11 09:58:30;;;;;;;3.40;3.10;;;22.60;27.90;;;;;;5053635;28;20382;-76
2021/09/11 10:00:56;;;;;;;5.53;3.83;;;22.60;27.80;;;;;;5053554;28;20496;-76
2021/09/11 10:03:22;;;;;;;4.60;3.30;;;22.60;28.30;;;;;;5051948;28;20488;-76
2021/09/11 10:05:51;;;;;;;5.53;2.70;;;22.80;27.60;;;;;;5060088;28;20387;-76
2021/09/11 10:08:18;;;;;;;4.15;2.65;;;22.90;26.90;;;;;;5074185;28;20439;-77
2021/09/11 10:10:49;;;;;;;5.80;2.90;;;23.10;25.80;;;;;;5062142;28;20393;-76
2021/09/11 10:13:17;;;;;;;2.90;2.55;;;23.50;25.60;;;;;;5053872;28;20397;-76
2021/09/11 10:15:52;;;;;;;3.33;2.70;;;23.70;24.30;;;;;;5054236;28;20902;-75
2021/09/11 10:18:30;;;;;;;5.55;2.97;;;23.70;24.10;;;;;;5052591;28;20436;-77
2021/09/11 10:21:39;;;;;;;4.85;3.03;;;23.60;24.00;;;;;;5038599;28;20426;-75
2021/09/11 10:24:14;;;;;;;6.25;2.90;;;23.70;25.10;;;;;;5045453;28;20416;-76
2021/09/11 10:26:51;;;;;;;4.88;2.97;;;23.90;23.90;;;;;;5041589;28;20390;-76
2021/09/11 10:29:31;;;;;;;3.90;2.88;;;24.20;23.30;;;;;;5032926;28;20407;-75
2021/09/11 10:32:05;;;;;;;4.47;2.80;;;24.10;23.10;;;;;;5032141;28;20469;-76
2021/09/11 10:34:58;;;;;;;5.60;2.97;;;24.00;23.10;;;;;;5046459;28;20546;-75
2021/09/11 10:37:39;;;;;;;6.45;2.72;;;23.90;23.90;;;;;;5052783;28;20400;-75
2021/09/11 10:40:43;;;;;;;4.63;2.75;;;23.90;23.10;;;;;;5052899;28;20874;-76
2021/09/11 10:43:31;;;;;;;4.97;2.90;;;23.80;23.10;;;;;;5052981;28;20480;-75
2021/09/11 10:46:07;;;;;;;4.47;3.00;;;23.40;25.30;;;;;;5053136;28;20484;-75
2021/09/11 10:48:42;;;;;;;4.80;3.20;;;23.40;25.40;;;;;;5052619;28;20412;-77
2021/09/11 10:51:13;;;;;;;3.65;3.20;;;23.40;25.80;;;;;;5053620;28;20465;-76
2021/09/11 10:53:39;;;;;;;4.72;3.22;;;23.50;27.00;;;;;;5054179;28;20405;-74
2021/09/11 10:56:44;;;;;;;4.25;3.03;;;23.80;25.00;;;;;;5054417;28;20382;-75
2021/09/11 10:59:15;;;;;;;4.07;2.80;;;23.80;24.60;;;;;;5053070;28;20845;-75
2021/09/11 11:01:58;;;;;;;6.00;3.20;;;23.80;25.40;;;;;;5051903;28;20385;-76
2021/09/11 11:04:35;;;;;;;4.07;3.30;;;23.60;25.40;;;;;;5052418;28;20389;-74
2021/09/11 11:07:08;;;;;;;3.50;3.15;;;23.30;26.10;;;;;;5038357;28;20403;-76
2021/09/11 11:09:35;;;;;;;5.35;3.00;;;23.10;26.70;;;;;;5041609;28;20432;-76
2021/09/11 11:12:01;;;;;;;6.85;3.60;;;22.90;27.30;;;;;;5049476;28;20502;-76
2021/09/11 11:14:30;;;;;;;5.22;3.70;;;23.00;27.50;;;;;;5047390;28;20429;-76
2021/09/11 11:16:56;;;;;;;5.03;3.70;;;23.10;27.50;;;;;;5045735;28;20409;-76
2021/09/11 11:19:26;;;;;;;6.63;4.43;;;23.30;27.20;;;;;;5051885;28;20901;-76
2021/09/11 11:21:56;;;;;;;5.20;3.60;;;23.30;27.00;;;;;;5052815;28;20838;-75
2021/09/11 11:24:23;;;;;;;4.22;3.40;;;23.30;27.40;;;;;;5051463;28;20450;-75
2021/09/11 11:26:49;;;;;;;4.80;3.38;;;23.30;27.20;;;;;;5051249;28;20407;-75
2021/09/11 11:29:18;;;;;;;5.90;3.70;;;23.40;27.00;;;;;;5053091;28;20857;-74
2021/09/11 11:31:44;;;;;;;7.25;4.20;;;23.40;27.40;;;;;;5054746;28;20398;-76
2021/09/11 11:34:12;;;;;;;5.63;3.60;;;23.50;26.40;;;;;;5055184;28;20782;-76
2021/09/11 11:36:45;;;;;;;3.95;3.35;;;23.80;25.90;;;;;;5052090;28;20476;-75
2021/09/11 11:39:18;;;;;;;4.00;3.50;;;23.90;24.70;;;;;;5052508;28;20755;-76
2021/09/11 11:42:16;;;;;;;7.82;3.90;;;24.00;24.80;;;;;;5052357;28;20377;-74
2021/09/11 11:44:45;;;;;;;3.95;3.00;;;24.20;24.90;;;;;;5050540;28;20421;-75
2021/09/11 11:47:52;;;;;;;3.88;3.13;;;24.30;24.40;;;;;;5051654;28;20461;-74
2021/09/11 11:50:30;;;;;;;4.00;3.40;;;24.40;23.90;;;;;;5052509;28;20389;-75
2021/09/11 11:53:07;;;;;;;6.00;3.60;;;24.50;24.10;;;;;;5054231;28;20387;-76
2021/09/11 11:55:36;;;;;;;5.55;3.50;;;24.50;23.70;;;;;;5058596;28;20386;-75
2021/09/11 11:58:18;;;;;;;3.97;3.67;;;24.40;23.70;;;;;;5063557;28;20405;-76
2021/09/11 12:00:46;;;;;;;6.45;3.70;;;24.40;24.00;;;;;;5051342;28;20385;-75
2021/09/11 12:03:35;;;;;;;5.55;3.35;;;24.40;23.10;;;;;;5052083;28;20559;-74
2021/09/11 12:06:05;;;;;;;4.68;3.60;;;24.30;24.40;;;;;;5048891;28;20445;-74
2021/09/11 12:08:40;;;;;;;3.83;3.35;;;24.50;24.60;;;;;;5050031;28;20401;-76
2021/09/11 12:11:13;;;;;;;6.15;3.72;;;24.60;24.10;;;;;;5061854;28;20412;-75
2021/09/11 12:13:39;;;;;;;3.42;3.13;;;24.50;23.20;;;;;;5061769;28;20393;-74
2021/09/11 12:16:05;;;;;;;5.60;3.60;;;24.60;23.20;;;;;;5060487;28;20381;-75
2021/09/11 12:18:34;;;;;;;7.30;3.95;;;24.70;23.30;;;;;;5052150;28;20427;-75
2021/09/11 12:21:07;;;;;;;4.80;3.30;;;24.90;22.70;;;;;;5042446;28;20452;-74
2021/09/11 12:23:37;;;;;;;6.97;3.50;;;25.00;22.00;;;;;;5046789;28;20564;-75
2021/09/11 12:26:05;;;;;;;7.07;3.67;;;25.10;21.90;;;;;;5049499;28;20413;-75
2021/09/11 12:28:46;;;;;;;4.78;3.17;;;25.00;21.90;;;;;;5048035;28;20414;-76
2021/09/11 12:31:22;;;;;;;5.47;3.58;;;24.60;23.00;;;;;;5050656;28;20751;-74
2021/09/11 12:33:51;;;;;;;4.95;3.53;;;24.10;24.60;;;;;;5049537;28;20409;-74
2021/09/11 12:36:20;;;;;;;4.22;3.50;;;23.80;25.10;;;;;;5050908;28;20389;-75
2021/09/11 12:38:45;;;;;;;6.53;3.58;;;23.70;25.90;;;;;;5049287;28;20424;-76
2021/09/11 12:41:11;;;;;;;6.07;3.67;;;23.60;25.50;;;;;;5049273;28;20398;-75